Decoded Metar for SKRG (RIO NEGRO in COLOMBIA) (IATA:MDE) | Meteo·Mobile Aviation Weather
aviador You're here:

SKRG Decoded Metar

RIO NEGRO in COLOMBIA
Report Time2018-12-14 13:00:00
UTC Time2018-12-14 13:28:25
Flight Rules ifr IFR
WindVRB at 02 kt
Visibility4000 m
Phenomena:Mist
Clouds:Broken 005 Hf
Expected CloudBase > 400 ft AGL from Temp-Dew spread
Ceiling500 ft
Temp15°C (ISA +14)
Dew Point14°C (94% RH)
QNH1028 hPa
Density Alt8,376 ft
Elevation7,020 ft
Report Wrong Elevation
Raw Report
METAR SKRG 141300Z VRB02KT 4000 BR BKN005 15/14 A3036=

Extra information for SKRG:More info

Metar Taf Metar & Taf Last 4 Metars F.Rules Stats Wind Profile Meteogram Temp Stats Airport Information Weather charts Add Link Nearby VenuesMetar ALERT Operation Metar Decoded Social comments